createdAt,value
2023-04-12T00:02:18.795Z,7.74
2023-04-12T00:04:55.794Z,7.80
2023-04-12T00:07:27.441Z,7.83
2023-04-12T00:09:57.372Z,7.78
2023-04-12T00:12:27.403Z,7.74
2023-04-12T00:14:57.309Z,7.82
2023-04-12T00:17:30.148Z,7.80
2023-04-12T00:20:00.396Z,7.75
2023-04-12T00:22:30.409Z,7.54
2023-04-12T00:25:01.045Z,7.24
2023-04-12T00:27:31.186Z,7.13
2023-04-12T00:30:01.330Z,7.04
2023-04-12T00:32:34.162Z,7.06
2023-04-12T00:35:04.354Z,7.02
2023-04-12T00:37:36.604Z,6.93
2023-04-12T00:40:07.311Z,6.83
2023-04-12T00:42:39.600Z,6.77
2023-04-12T00:45:10.726Z,6.69
2023-04-12T00:47:44.253Z,6.73
2023-04-12T00:50:15.435Z,6.66
2023-04-12T00:52:45.487Z,6.63
2023-04-12T00:55:16.989Z,6.54
2023-04-12T00:57:47.126Z,6.52
2023-04-12T01:00:17.962Z,6.47
2023-04-12T01:02:51.377Z,6.52
2023-04-12T01:05:25.970Z,6.47
2023-04-12T01:08:07.883Z,6.52
2023-04-12T01:10:46.967Z,6.56
2023-04-12T01:13:31.728Z,6.56
2023-04-12T01:16:10.544Z,6.64
2023-04-12T01:18:46.171Z,6.69
2023-04-12T01:21:21.084Z,6.75
2023-04-12T01:24:04.411Z,6.78
2023-04-12T01:26:39.477Z,6.80
2023-04-12T01:29:18.298Z,6.86
2023-04-12T01:31:55.900Z,6.86
2023-04-12T01:34:28.359Z,6.91
2023-04-12T01:37:00.299Z,6.91
2023-04-12T01:39:31.031Z,6.93
2023-04-12T01:42:01.019Z,6.83
2023-04-12T01:44:34.450Z,6.84
2023-04-12T01:47:06.816Z,6.80
2023-04-12T01:49:48.925Z,6.79
2023-04-12T01:52:23.573Z,6.74
2023-04-12T01:54:57.468Z,6.79
2023-04-12T01:57:30.118Z,6.75
2023-04-12T02:00:07.218Z,6.81
2023-04-12T02:02:45.126Z,6.68
2023-04-12T02:05:15.820Z,6.66
2023-04-12T02:07:46.197Z,6.54
2023-04-12T02:10:17.145Z,6.56
2023-04-12T02:12:47.358Z,6.58
2023-04-12T02:15:21.385Z,6.48
2023-04-12T02:17:54.196Z,6.38
2023-04-12T02:20:25.564Z,6.43
2023-04-12T02:22:55.726Z,6.48
2023-04-12T02:25:27.428Z,6.46
2023-04-12T02:27:57.941Z,6.42
2023-04-12T02:30:31.339Z,6.43
2023-04-12T02:33:02.924Z,6.42
2023-04-12T02:35:37.670Z,6.45
2023-04-12T02:38:14.657Z,6.41
2023-04-12T02:40:45.394Z,6.40
2023-04-12T02:43:18.716Z,6.42
2023-04-12T02:45:55.810Z,6.41
2023-04-12T02:48:25.787Z,6.48
2023-04-12T02:50:56.072Z,6.48
2023-04-12T02:53:28.379Z,6.50
2023-04-12T02:56:13.180Z,6.52
2023-04-12T02:58:43.144Z,6.56
2023-04-12T03:01:18.776Z,6.60
2023-04-12T03:04:13.951Z,6.56
2023-04-12T03:06:55.386Z,6.56
2023-04-12T03:09:33.724Z,6.46
2023-04-12T03:12:05.104Z,6.47
2023-04-12T03:14:39.792Z,6.56
2023-04-12T03:17:14.373Z,6.59
2023-04-12T03:19:44.764Z,6.57
2023-04-12T03:22:15.008Z,6.45
2023-04-12T03:24:49.840Z,6.53
2023-04-12T03:27:22.779Z,6.48
2023-04-12T03:29:55.895Z,6.45
2023-04-12T03:32:29.990Z,6.47
2023-04-12T03:35:00.582Z,6.46
2023-04-12T03:37:33.326Z,6.49
2023-04-12T03:40:05.065Z,6.53
2023-04-12T03:42:36.778Z,6.59
2023-04-12T03:45:18.519Z,6.59
2023-04-12T03:47:58.721Z,6.63
2023-04-12T03:50:29.775Z,6.68
2023-04-12T03:53:01.019Z,6.78
2023-04-12T03:55:34.541Z,6.74
2023-04-12T03:58:04.877Z,6.73
2023-04-12T04:00:41.105Z,6.78
2023-04-12T04:03:15.436Z,6.77
2023-04-12T04:05:55.768Z,6.77
2023-04-12T04:08:28.594Z,6.76
2023-04-12T04:10:59.874Z,6.77
2023-04-12T04:13:35.199Z,6.77
2023-04-12T04:16:11.157Z,6.77
2023-04-12T04:18:45.829Z,6.76
2023-04-12T04:21:19.989Z,6.78
2023-04-12T04:23:52.090Z,6.75
2023-04-12T04:26:31.511Z,6.74
2023-04-12T04:29:05.389Z,6.62
2023-04-12T04:31:48.629Z,6.66
2023-04-12T04:34:22.501Z,6.66
2023-04-12T04:36:55.600Z,6.65
2023-04-12T04:39:30.146Z,6.68
2023-04-12T04:42:01.932Z,6.62
2023-04-12T04:44:39.355Z,6.60
2023-04-12T04:47:14.409Z,6.58
2023-04-12T04:49:48.292Z,6.60
2023-04-12T04:52:28.678Z,6.61
2023-04-12T04:55:06.529Z,6.63
2023-04-12T04:57:39.896Z,6.60
2023-04-12T05:00:11.840Z,6.58
2023-04-12T05:02:46.371Z,6.61
2023-04-12T05:05:28.211Z,6.63
2023-04-12T05:08:07.677Z,6.61
2023-04-12T05:10:40.641Z,6.60
2023-04-12T05:13:12.866Z,6.63
2023-04-12T05:15:43.866Z,6.66
2023-04-12T05:18:13.932Z,6.57
2023-04-12T05:20:48.401Z,6.69
2023-04-12T05:23:19.297Z,6.75
2023-04-12T05:25:50.274Z,6.76
2023-04-12T05:28:21.760Z,6.77
2023-04-12T05:30:53.620Z,6.81
2023-04-12T05:33:29.860Z,6.76
2023-04-12T05:36:04.417Z,6.85
2023-04-12T05:38:35.668Z,6.82
2023-04-12T05:41:12.950Z,6.89
2023-04-12T05:43:44.279Z,6.94
2023-04-12T05:46:15.622Z,6.94
2023-04-12T05:48:48.346Z,7.02
2023-04-12T05:51:30.618Z,7.05
2023-04-12T05:54:08.454Z,7.07
2023-04-12T05:56:39.717Z,7.07
2023-04-12T05:59:12.578Z,7.11
2023-04-12T06:01:46.090Z,7.10
2023-04-12T06:04:16.417Z,7.14
2023-04-12T06:06:50.086Z,7.16
2023-04-12T06:09:20.065Z,7.19
2023-04-12T06:11:51.087Z,7.25
2023-04-12T06:14:21.420Z,7.28
2023-04-12T06:16:51.409Z,7.35
2023-04-12T06:19:21.683Z,7.41
2023-04-12T06:21:57.315Z,7.44
2023-04-12T06:24:27.926Z,7.50
2023-04-12T06:26:58.413Z,7.43
2023-04-12T06:29:29.050Z,7.51
2023-04-12T06:31:59.046Z,7.65
2023-04-12T06:34:29.278Z,7.78
2023-04-12T06:37:05.517Z,7.77
2023-04-12T06:39:35.842Z,7.81
2023-04-12T06:42:06.038Z,7.88
2023-04-12T06:44:37.829Z,7.87
2023-04-12T06:47:07.923Z,8.01
2023-04-12T06:49:38.029Z,8.12
2023-04-12T06:52:10.648Z,8.31
2023-04-12T06:54:40.706Z,8.47
2023-04-12T06:57:12.497Z,8.49
2023-04-12T06:59:42.708Z,8.46
2023-04-12T07:02:12.818Z,8.48
2023-04-12T07:04:42.814Z,8.58
2023-04-12T07:07:15.606Z,8.55
2023-04-12T07:09:47.418Z,8.64
2023-04-12T07:12:28.751Z,8.66
2023-04-12T07:15:04.421Z,8.79
2023-04-12T07:17:34.559Z,9.02
2023-04-12T07:20:04.549Z,9.11
2023-04-12T07:22:37.055Z,9.08
2023-04-12T07:25:10.702Z,8.99
2023-04-12T07:27:40.749Z,9.12
2023-04-12T07:30:11.954Z,9.13
2023-04-12T07:32:42.272Z,9.23
2023-04-12T07:35:12.832Z,9.30
2023-04-12T07:37:45.548Z,9.31
2023-04-12T07:40:15.787Z,9.35
2023-04-12T07:42:45.761Z,9.24
2023-04-12T07:45:15.739Z,9.34
2023-04-12T07:47:45.885Z,9.41
2023-04-12T07:50:16.810Z,9.58
2023-04-12T07:52:49.559Z,9.57
2023-04-12T07:55:19.544Z,9.67
2023-04-12T07:57:49.471Z,9.61
2023-04-12T08:00:21.088Z,9.46
2023-04-12T08:02:51.370Z,9.60
2023-04-12T08:05:21.611Z,9.58
2023-04-12T08:07:54.690Z,9.62
2023-04-12T08:10:24.793Z,9.63
2023-04-12T08:12:54.961Z,9.65
2023-04-12T08:15:25.112Z,9.83
2023-04-12T08:17:55.150Z,9.84
2023-04-12T08:20:25.252Z,9.90
2023-04-12T08:22:58.243Z,9.92
2023-04-12T08:25:28.284Z,9.95
2023-04-12T08:27:58.426Z,9.99
2023-04-12T08:30:28.563Z,10.13
2023-04-12T08:32:58.754Z,10.39
2023-04-12T08:35:28.867Z,10.56
2023-04-12T08:38:07.643Z,10.76
2023-04-12T08:40:38.918Z,10.88
2023-04-12T08:43:13.666Z,10.98
2023-04-12T08:45:43.752Z,11.21
2023-04-12T08:48:14.133Z,11.29
2023-04-12T08:50:48.032Z,11.52
2023-04-12T08:53:22.310Z,11.72
2023-04-12T08:55:52.381Z,11.76
2023-04-12T08:58:23.510Z,11.98
2023-04-12T09:00:54.289Z,11.93
2023-04-12T09:03:24.578Z,11.94
2023-04-12T09:05:54.741Z,11.85
2023-04-12T09:08:28.272Z,11.62
2023-04-12T09:10:58.380Z,11.51
2023-04-12T09:13:35.618Z,11.43
2023-04-12T09:16:06.798Z,11.40
2023-04-12T09:18:51.773Z,11.36
2023-04-12T09:21:21.933Z,11.31
2023-04-12T09:24:06.382Z,11.32
2023-04-12T09:26:36.388Z,11.45
2023-04-12T09:29:06.912Z,11.65
2023-04-12T09:31:37.185Z,11.89
2023-04-12T09:34:11.773Z,11.90
2023-04-12T09:36:43.000Z,11.98
2023-04-12T09:39:16.776Z,12.03
2023-04-12T09:41:46.927Z,12.00
2023-04-12T09:44:32.811Z,11.84
2023-04-12T09:47:04.469Z,11.88
2023-04-12T09:49:42.032Z,12.03
2023-04-12T09:52:13.849Z,12.03
2023-04-12T09:54:48.993Z,12.14
2023-04-12T09:57:21.221Z,12.26
2023-04-12T09:59:52.979Z,12.57
2023-04-12T10:02:29.657Z,12.53
2023-04-12T10:05:00.496Z,12.65
2023-04-12T10:07:30.663Z,12.73
2023-04-12T10:10:05.247Z,12.99
2023-04-12T10:12:36.622Z,13.13
2023-04-12T10:15:13.071Z,13.06
2023-04-12T10:17:46.526Z,13.43
2023-04-12T10:20:17.654Z,13.44
2023-04-12T10:22:49.201Z,13.79
2023-04-12T10:25:24.037Z,14.37
2023-04-12T10:27:54.504Z,14.80
2023-04-12T10:30:30.803Z,15.31
2023-04-12T10:33:17.005Z,15.74
2023-04-12T10:36:03.973Z,15.68
2023-04-12T10:38:47.524Z,15.86
2023-04-12T10:41:25.029Z,15.84
2023-04-12T10:43:55.431Z,15.84
2023-04-12T10:46:52.833Z,15.22
2023-04-12T10:49:22.907Z,15.28
2023-04-12T10:52:16.497Z,15.24
2023-04-12T10:54:47.096Z,15.57
2023-04-12T10:57:50.884Z,15.65
2023-04-12T11:00:25.248Z,15.53
2023-04-12T11:03:12.881Z,15.46
2023-04-12T11:06:12.639Z,15.86
2023-04-12T11:09:08.732Z,16.49
2023-04-12T11:11:44.688Z,17.04
2023-04-12T11:14:19.712Z,16.77
2023-04-12T11:17:20.252Z,16.82
2023-04-12T11:19:54.338Z,17.44
2023-04-12T11:22:25.783Z,17.78
2023-04-12T11:24:57.356Z,17.89
2023-04-12T11:27:32.733Z,18.11
2023-04-12T11:30:05.622Z,18.00
2023-04-12T11:32:41.636Z,17.69
2023-04-12T11:35:12.749Z,17.55
2023-04-12T11:37:42.920Z,17.94
2023-04-12T11:40:14.020Z,17.49
2023-04-12T11:42:44.704Z,17.54
2023-04-12T11:45:22.611Z,17.47
2023-04-12T11:47:55.135Z,16.75
2023-04-12T11:50:33.996Z,16.53
2023-04-12T11:53:15.421Z,16.42
2023-04-12T11:55:51.100Z,16.75
2023-04-12T11:58:25.511Z,17.29
2023-04-12T12:01:00.107Z,17.16
2023-04-12T12:03:31.021Z,16.95
2023-04-12T12:06:02.207Z,17.30
2023-04-12T12:08:32.804Z,17.08
2023-04-12T12:11:07.902Z,16.37
2023-04-12T12:13:50.898Z,15.93
2023-04-12T12:16:28.135Z,15.69
2023-04-12T12:19:00.164Z,15.65
2023-04-12T12:21:31.623Z,15.69
2023-04-12T12:24:02.541Z,15.97
2023-04-12T12:26:32.820Z,16.26
2023-04-12T12:29:03.259Z,16.17
2023-04-12T12:31:36.315Z,17.03
2023-04-12T12:34:09.025Z,17.36
2023-04-12T12:36:40.194Z,17.71
2023-04-12T12:39:11.792Z,17.51
2023-04-12T12:41:43.322Z,17.73
2023-04-12T12:44:14.096Z,17.68
2023-04-12T12:46:53.289Z,17.51
2023-04-12T12:49:25.632Z,18.39
2023-04-12T12:51:56.256Z,19.28
2023-04-12T12:56:59.604Z,18.50
2023-04-12T12:59:29.788Z,18.30
2023-04-12T13:02:02.712Z,17.57
2023-04-12T13:04:32.916Z,17.31
2023-04-12T13:07:02.975Z,17.56
2023-04-12T13:09:35.491Z,16.97
2023-04-12T13:12:05.874Z,17.01
2023-04-12T13:14:36.875Z,16.74
2023-04-12T13:17:09.651Z,16.75
2023-04-12T13:19:41.114Z,16.42
2023-04-12T13:22:11.326Z,16.55
2023-04-12T13:24:42.126Z,17.05
2023-04-12T13:27:15.159Z,17.13
2023-04-12T13:29:45.635Z,16.78
2023-04-12T13:32:18.791Z,16.01
2023-04-12T13:34:48.975Z,15.98
2023-04-12T13:37:19.080Z,16.11
2023-04-12T13:39:49.809Z,16.73
2023-04-12T13:42:20.452Z,16.81
2023-04-12T13:44:50.622Z,16.44
2023-04-12T13:47:23.317Z,16.08
2023-04-12T13:49:54.458Z,16.56
2023-04-12T13:52:24.522Z,16.82
2023-04-12T13:54:54.889Z,17.05
2023-04-12T13:57:25.053Z,17.02
2023-04-12T13:59:55.623Z,17.00
2023-04-12T14:02:30.705Z,17.15
2023-04-12T14:05:01.599Z,17.09
2023-04-12T14:07:31.767Z,16.46
2023-04-12T14:10:02.002Z,16.30
2023-04-12T14:12:32.054Z,16.39
2023-04-12T14:15:03.058Z,16.57
2023-04-12T14:17:35.825Z,16.54
2023-04-12T14:20:08.994Z,16.63
2023-04-12T14:22:39.101Z,16.33
2023-04-12T14:25:10.441Z,16.61
2023-04-12T14:27:40.989Z,16.83
2023-04-12T14:30:12.209Z,17.43
2023-04-12T14:32:46.719Z,17.33
2023-04-12T14:35:18.209Z,17.57
2023-04-12T14:37:48.661Z,17.16
2023-04-12T14:40:19.063Z,17.55
2023-04-12T14:42:49.546Z,17.85
2023-04-12T14:45:21.108Z,18.21
2023-04-12T14:47:53.791Z,19.17
2023-04-12T14:50:24.301Z,18.90
2023-04-12T14:52:54.668Z,17.91
2023-04-12T14:55:26.625Z,17.51
2023-04-12T14:57:56.714Z,17.45
2023-04-12T15:00:29.705Z,19.18
2023-04-12T15:03:02.999Z,19.31
2023-04-12T15:05:33.636Z,18.29
2023-04-12T15:08:04.432Z,17.25
2023-04-12T15:10:34.644Z,17.14
2023-04-12T15:13:04.701Z,16.54
2023-04-12T15:15:34.660Z,16.79
2023-04-12T15:18:07.656Z,16.80
2023-04-12T15:20:38.816Z,16.69
2023-04-12T15:23:09.477Z,16.36
2023-04-12T15:25:40.433Z,16.17
2023-04-12T15:28:10.439Z,15.83
2023-04-12T15:30:40.856Z,15.47
2023-04-12T15:33:13.515Z,14.53
2023-04-12T15:35:43.582Z,11.88
2023-04-12T15:38:16.972Z,10.44
2023-04-12T15:40:49.224Z,9.91
2023-04-12T15:43:19.462Z,9.72
2023-04-12T15:45:53.217Z,9.56
2023-04-12T15:48:28.175Z,9.57
2023-04-12T15:50:59.599Z,9.36
2023-04-12T15:53:30.212Z,9.41
2023-04-12T15:56:01.040Z,9.70
2023-04-12T15:58:31.383Z,9.89
2023-04-12T16:01:01.673Z,10.06
2023-04-12T16:03:34.795Z,10.44
2023-04-12T16:06:05.367Z,10.77
2023-04-12T16:08:35.522Z,10.47
2023-04-12T16:11:06.403Z,11.05
2023-04-12T16:13:36.960Z,12.33
2023-04-12T16:16:13.008Z,12.06
2023-04-12T16:18:46.290Z,12.00
2023-04-12T16:21:20.513Z,11.76
2023-04-12T16:23:51.671Z,11.49
2023-04-12T16:26:23.370Z,10.96
2023-04-12T16:28:54.014Z,10.72
2023-04-12T16:31:25.672Z,10.65
2023-04-12T16:33:58.693Z,10.60
2023-04-12T16:36:31.806Z,10.64
2023-04-12T16:39:03.665Z,10.74
2023-04-12T16:41:33.888Z,10.86
2023-04-12T16:44:04.169Z,10.95
2023-04-12T16:46:34.324Z,10.85
2023-04-12T16:49:07.047Z,10.73
2023-04-12T16:51:37.635Z,10.73
2023-04-12T16:54:08.205Z,10.61
2023-04-12T16:56:38.709Z,10.70
2023-04-12T16:59:09.975Z,10.72
2023-04-12T17:01:40.287Z,10.69
2023-04-12T17:04:14.683Z,10.66
2023-04-12T17:06:45.194Z,10.62
2023-04-12T17:09:15.303Z,10.61
2023-04-12T17:11:45.559Z,10.59
2023-04-12T17:14:21.333Z,10.48
2023-04-12T17:16:52.109Z,10.50
2023-04-12T17:19:25.447Z,10.40
2023-04-12T17:21:56.024Z,10.42
2023-04-12T17:24:26.627Z,10.36
2023-04-12T17:26:57.070Z,10.23
2023-04-12T17:29:28.224Z,10.05
2023-04-12T17:31:58.765Z,9.85
2023-04-12T17:34:31.945Z,9.65
2023-04-12T17:37:02.156Z,9.46
2023-04-12T17:39:32.378Z,9.31
2023-04-12T17:42:04.597Z,9.16
2023-04-12T17:44:34.647Z,9.08
2023-04-12T17:47:04.694Z,8.98
2023-04-12T17:49:37.323Z,8.93
2023-04-12T17:52:11.156Z,8.87
2023-04-12T17:54:42.003Z,8.80
2023-04-12T17:57:12.644Z,8.78
2023-04-12T17:59:42.929Z,8.75
2023-04-12T18:02:17.212Z,8.73
2023-04-12T18:04:52.568Z,8.76
2023-04-12T18:07:23.165Z,8.65
2023-04-12T18:09:53.518Z,8.64
2023-04-12T18:12:25.677Z,8.62
2023-04-12T18:14:55.989Z,8.50
2023-04-12T18:17:27.156Z,8.49
2023-04-12T18:20:02.423Z,8.38
2023-04-12T18:22:33.276Z,8.36
2023-04-12T18:25:05.246Z,8.29
2023-04-12T18:27:35.941Z,8.22
2023-04-12T18:30:06.419Z,8.22
2023-04-12T18:32:36.571Z,8.21
2023-04-12T18:35:12.140Z,8.15
2023-04-12T18:37:44.004Z,8.13
2023-04-12T18:40:16.257Z,8.11
2023-04-12T18:42:46.946Z,8.14
2023-04-12T18:45:17.798Z,8.14
2023-04-12T18:47:47.848Z,8.05
2023-04-12T18:50:21.093Z,8.04
2023-04-12T18:52:51.221Z,8.04
2023-04-12T18:55:21.418Z,7.96
2023-04-12T18:57:54.818Z,7.97
2023-04-12T19:00:24.950Z,7.99
2023-04-12T19:02:55.165Z,7.96
2023-04-12T19:05:28.273Z,8.00
2023-04-12T19:07:58.380Z,8.05
2023-04-12T19:10:31.018Z,8.01
2023-04-12T19:13:01.640Z,8.02
2023-04-12T19:15:32.304Z,8.02
2023-04-12T19:18:02.334Z,7.98
2023-04-12T19:20:35.745Z,7.96
2023-04-12T19:23:06.343Z,8.03
2023-04-12T19:25:38.043Z,8.04
2023-04-12T19:28:09.413Z,8.07
2023-04-12T19:30:39.715Z,7.99
2023-04-12T19:33:10.165Z,8.03
2023-04-12T19:35:43.095Z,7.98
2023-04-12T19:38:14.723Z,7.98
2023-04-12T19:40:46.282Z,7.98
2023-04-12T19:43:18.786Z,7.93
2023-04-12T19:45:49.456Z,7.95
2023-04-12T19:48:20.097Z,7.97
2023-04-12T19:50:55.107Z,7.96
2023-04-12T19:53:26.138Z,7.97
2023-04-12T19:56:00.159Z,7.92
2023-04-12T19:58:31.647Z,7.90
2023-04-12T20:01:04.285Z,7.90
2023-04-12T20:03:36.110Z,7.88
2023-04-12T20:06:11.354Z,7.88
2023-04-12T20:08:42.377Z,7.89
2023-04-12T20:11:13.965Z,7.90
2023-04-12T20:13:44.560Z,7.91
2023-04-12T20:16:15.762Z,7.91
2023-04-12T20:18:46.242Z,7.89
2023-04-12T20:21:19.626Z,7.86
2023-04-12T20:23:51.210Z,7.84
2023-04-12T20:26:23.542Z,7.88
2023-04-12T20:28:54.559Z,7.92
2023-04-12T20:31:26.563Z,7.93
2023-04-12T20:33:57.562Z,7.95
2023-04-12T20:36:31.154Z,7.94
2023-04-12T20:39:01.756Z,7.98
2023-04-12T20:41:32.161Z,8.05
2023-04-12T20:44:02.263Z,8.05
2023-04-12T20:46:36.819Z,8.04
2023-04-12T20:49:07.843Z,8.04
2023-04-12T20:51:40.597Z,8.06
2023-04-12T20:54:10.964Z,8.09
2023-04-12T20:56:41.157Z,8.07
2023-04-12T20:59:11.234Z,7.99
2023-04-12T21:01:43.364Z,7.79
2023-04-12T21:04:16.270Z,7.63
2023-04-12T21:06:51.613Z,7.52
2023-04-12T21:09:21.964Z,7.34
2023-04-12T21:11:52.717Z,7.09
2023-04-12T21:14:23.379Z,6.86
2023-04-12T21:16:54.650Z,6.56
2023-04-12T21:19:24.656Z,6.39
2023-04-12T21:21:57.430Z,6.30
2023-04-12T21:24:27.597Z,6.16
2023-04-12T21:27:00.214Z,6.16
2023-04-12T21:29:33.748Z,6.13
2023-04-12T21:32:08.576Z,6.11
2023-04-12T21:34:39.700Z,6.17
2023-04-12T21:37:12.520Z,6.22
2023-04-12T21:39:43.769Z,6.14
2023-04-12T21:42:13.920Z,6.22
2023-04-12T21:44:44.654Z,6.25
2023-04-12T21:47:14.923Z,6.21
2023-04-12T21:49:45.319Z,6.20
2023-04-12T21:52:18.758Z,6.20
2023-04-12T21:54:48.684Z,6.29
2023-04-12T21:57:19.232Z,6.24
2023-04-12T21:59:49.313Z,6.25
2023-04-12T22:02:19.794Z,6.23
2023-04-12T22:04:50.106Z,6.24
2023-04-12T22:07:22.981Z,6.27
2023-04-12T22:09:53.672Z,6.24
2023-04-12T22:12:25.785Z,6.21
2023-04-12T22:14:57.774Z,6.25
2023-04-12T22:20:00.512Z,6.21
2023-04-12T22:22:33.489Z,6.23
2023-04-12T22:25:04.862Z,6.22
2023-04-12T22:27:35.368Z,6.26
2023-04-12T22:30:05.704Z,6.22
2023-04-12T22:32:36.315Z,6.28
2023-04-12T22:35:08.753Z,6.29
2023-04-12T22:37:42.425Z,6.27
2023-04-12T22:40:14.438Z,6.26
2023-04-12T22:42:56.268Z,6.28
2023-04-12T22:45:28.829Z,6.25
2023-04-12T22:47:59.672Z,6.25
2023-04-12T22:50:29.854Z,6.19
2023-04-12T22:53:03.289Z,6.20
2023-04-12T22:55:33.416Z,6.19
2023-04-12T22:58:08.388Z,6.16
2023-04-12T23:00:39.727Z,6.08
2023-04-12T23:03:11.475Z,5.99
2023-04-12T23:05:45.001Z,5.95
2023-04-12T23:08:20.826Z,5.92
2023-04-12T23:10:51.395Z,5.83
2023-04-12T23:13:21.530Z,5.79
2023-04-12T23:15:52.051Z,5.77
2023-04-12T23:18:22.534Z,5.72
2023-04-12T23:20:52.708Z,5.62
2023-04-12T23:23:26.474Z,5.54
2023-04-12T23:25:57.466Z,5.50
2023-04-12T23:28:28.674Z,5.47
2023-04-12T23:31:02.055Z,5.42
2023-04-12T23:33:32.829Z,5.33
2023-04-12T23:36:05.775Z,5.36
2023-04-12T23:38:38.947Z,5.29
2023-04-12T23:41:11.717Z,5.22
2023-04-12T23:43:41.927Z,5.13
2023-04-12T23:46:12.582Z,5.08
2023-04-12T23:48:42.618Z,5.12
2023-04-12T23:51:12.728Z,5.18
2023-04-12T23:53:45.608Z,5.19
2023-04-12T23:56:16.022Z,5.25
2023-04-12T23:58:46.947Z,5.26
